sensor_id;sensor_type;location;lat;lon;timestamp;P1;P2;P0
55276;PMS5003;41136;51.478;-2.610;2023-02-15T00:00:08;77;67;
55276;PMS5003;41136;51.478;-2.610;2023-02-15T00:02:32;77;70;
55276;PMS5003;41136;51.478;-2.610;2023-02-15T00:04:58;76;69;
55276;PMS5003;41136;51.478;-2.610;2023-02-15T00:07:23;84;70;
55276;PMS5003;41136;51.478;-2.610;2023-02-15T00:09:48;75;65;
55276;PMS5003;41136;51.478;-2.610;2023-02-15T00:12:14;75;65;
55276;PMS5003;41136;51.478;-2.610;2023-02-15T00:14:44;66;64;
55276;PMS5003;41136;51.478;-2.610;2023-02-15T00:17:05;76;68;
55276;PMS5003;41136;51.478;-2.610;2023-02-15T00:19:30;79;69;
55276;PMS5003;41136;51.478;-2.610;2023-02-15T00:21:56;79;67;
55276;PMS5003;41136;51.478;-2.610;2023-02-15T00:24:21;73;65;
55276;PMS5003;41136;51.478;-2.610;2023-02-15T00:26:47;80;73;
55276;PMS5003;41136;51.478;-2.610;2023-02-15T00:29:13;82;72;
55276;PMS5003;41136;51.478;-2.610;2023-02-15T00:31:37;75;70;
55276;PMS5003;41136;51.478;-2.610;2023-02-15T00:34:03;74;67;
55276;PMS5003;41136;51.478;-2.610;2023-02-15T00:36:28;78;68;
55276;PMS5003;41136;51.478;-2.610;2023-02-15T00:38:53;81;67;
55276;PMS5003;41136;51.478;-2.610;2023-02-15T00:41:18;85;74;
55276;PMS5003;41136;51.478;-2.610;2023-02-15T00:43:44;73;69;
55276;PMS5003;41136;51.478;-2.610;2023-02-15T00:46:09;83;72;
55276;PMS5003;41136;51.478;-2.610;2023-02-15T00:48:34;89;77;
55276;PMS5003;41136;51.478;-2.610;2023-02-15T00:51:00;80;73;
55276;PMS5003;41136;51.478;-2.610;2023-02-15T00:53:26;81;72;
55276;PMS5003;41136;51.478;-2.610;2023-02-15T00:55:51;76;67;
55276;PMS5003;41136;51.478;-2.610;2023-02-15T00:58:16;78;69;
55276;PMS5003;41136;51.478;-2.610;2023-02-15T01:00:43;82;77;
55276;PMS5003;41136;51.478;-2.610;2023-02-15T01:03:07;81;66;
55276;PMS5003;41136;51.478;-2.610;2023-02-15T01:05:33;79;68;
55276;PMS5003;41136;51.478;-2.610;2023-02-15T01:07:58;72;68;
55276;PMS5003;41136;51.478;-2.610;2023-02-15T01:10:24;83;70;
55276;PMS5003;41136;51.478;-2.610;2023-02-15T01:12:50;87;72;
55276;PMS5003;41136;51.478;-2.610;2023-02-15T01:15:16;68;64;
55276;PMS5003;41136;51.478;-2.610;2023-02-15T01:17:41;73;68;
55276;PMS5003;41136;51.478;-2.610;2023-02-15T01:20:07;85;66;
55276;PMS5003;41136;51.478;-2.610;2023-02-15T01:22:33;66;57;
55276;PMS5003;41136;51.478;-2.610;2023-02-15T01:24:59;72;66;
55276;PMS5003;41136;51.478;-2.610;2023-02-15T01:27:24;71;67;
55276;PMS5003;41136;51.478;-2.610;2023-02-15T01:29:49;71;66;
55276;PMS5003;41136;51.478;-2.610;2023-02-15T01:32:15;71;68;
55276;PMS5003;41136;51.478;-2.610;2023-02-15T01:34:40;73;70;
55276;PMS5003;41136;51.478;-2.610;2023-02-15T01:37:05;77;71;
55276;PMS5003;41136;51.478;-2.610;2023-02-15T01:39:31;73;70;
55276;PMS5003;41136;51.478;-2.610;2023-02-15T01:41:56;85;75;
55276;PMS5003;41136;51.478;-2.610;2023-02-15T01:46:49;79;70;
55276;PMS5003;41136;51.478;-2.610;2023-02-15T01:49:14;80;70;
55276;PMS5003;41136;51.478;-2.610;2023-02-15T01:53:35;75;71;
55276;PMS5003;41136;51.478;-2.610;2023-02-15T01:56:02;84;74;
55276;PMS5003;41136;51.478;-2.610;2023-02-15T01:58:27;96;78;
55276;PMS5003;41136;51.478;-2.610;2023-02-15T02:00:52;82;74;
55276;PMS5003;41136;51.478;-2.610;2023-02-15T02:03:17;96;77;
55276;PMS5003;41136;51.478;-2.610;2023-02-15T02:05:43;87;76;
55276;PMS5003;41136;51.478;-2.610;2023-02-15T02:08:08;89;78;
55276;PMS5003;41136;51.478;-2.610;2023-02-15T02:10:34;77;69;
55276;PMS5003;41136;51.478;-2.610;2023-02-15T02:12:59;79;72;
55276;PMS5003;41136;51.478;-2.610;2023-02-15T02:15:27;92;81;
55276;PMS5003;41136;51.478;-2.610;2023-02-15T02:17:54;88;80;
55276;PMS5003;41136;51.478;-2.610;2023-02-15T02:20:17;84;80;
55276;PMS5003;41136;51.478;-2.610;2023-02-15T02:27:35;88;77;
55276;PMS5003;41136;51.478;-2.610;2023-02-15T02:30:04;82;71;
55276;PMS5003;41136;51.478;-2.610;2023-02-15T02:34:50;91;84;
55276;PMS5003;41136;51.478;-2.610;2023-02-15T02:37:16;85;77;
55276;PMS5003;41136;51.478;-2.610;2023-02-15T02:39:49;92;78;
55276;PMS5003;41136;51.478;-2.610;2023-02-15T02:42:06;95;82;
55276;PMS5003;41136;51.478;-2.610;2023-02-15T02:44:34;83;74;
55276;PMS5003;41136;51.478;-2.610;2023-02-15T02:46:57;87;83;
55276;PMS5003;41136;51.478;-2.610;2023-02-15T02:51:57;102;86;
55276;PMS5003;41136;51.478;-2.610;2023-02-15T02:54:13;102;82;
55276;PMS5003;41136;51.478;-2.610;2023-02-15T02:56:39;82;74;
55276;PMS5003;41136;51.478;-2.610;2023-02-15T02:59:05;92;83;
55276;PMS5003;41136;51.478;-2.610;2023-02-15T03:01:30;107;90;
55276;PMS5003;41136;51.478;-2.610;2023-02-15T03:03:55;86;79;
55276;PMS5003;41136;51.478;-2.610;2023-02-15T03:06:22;104;94;
55276;PMS5003;41136;51.478;-2.610;2023-02-15T03:08:47;90;82;
55276;PMS5003;41136;51.478;-2.610;2023-02-15T03:11:11;90;82;
55276;PMS5003;41136;51.478;-2.610;2023-02-15T03:13:36;99;84;
55276;PMS5003;41136;51.478;-2.610;2023-02-15T03:16:02;96;82;
55276;PMS5003;41136;51.478;-2.610;2023-02-15T03:18:28;109;88;
55276;PMS5003;41136;51.478;-2.610;2023-02-15T03:20:52;101;85;
55276;PMS5003;41136;51.478;-2.610;2023-02-15T03:23:18;98;84;
55276;PMS5003;41136;51.478;-2.610;2023-02-15T03:25:43;99;92;
55276;PMS5003;41136;51.478;-2.610;2023-02-15T03:28:09;99;87;
55276;PMS5003;41136;51.478;-2.610;2023-02-15T03:30:33;99;83;
55276;PMS5003;41136;51.478;-2.610;2023-02-15T03:32:59;113;93;
55276;PMS5003;41136;51.478;-2.610;2023-02-15T03:35:24;106;93;
55276;PMS5003;41136;51.478;-2.610;2023-02-15T03:37:50;91;86;
55276;PMS5003;41136;51.478;-2.610;2023-02-15T03:40:15;106;93;
55276;PMS5003;41136;51.478;-2.610;2023-02-15T03:42:39;102;88;
55276;PMS5003;41136;51.478;-2.610;2023-02-15T03:45:05;104;93;
55276;PMS5003;41136;51.478;-2.610;2023-02-15T03:47:31;103;98;
55276;PMS5003;41136;51.478;-2.610;2023-02-15T03:49:57;115;95;
55276;PMS5003;41136;51.478;-2.610;2023-02-15T03:52:21;116;91;
55276;PMS5003;41136;51.478;-2.610;2023-02-15T03:54:46;108;96;
55276;PMS5003;41136;51.478;-2.610;2023-02-15T03:57:14;105;94;
55276;PMS5003;41136;51.478;-2.610;2023-02-15T03:59:37;104;91;
55276;PMS5003;41136;51.478;-2.610;2023-02-15T04:02:06;109;94;
55276;PMS5003;41136;51.478;-2.610;2023-02-15T04:04:31;111;90;
55276;PMS5003;41136;51.478;-2.610;2023-02-15T04:06:54;101;93;
55276;PMS5003;41136;51.478;-2.610;2023-02-15T04:09:19;98;92;
55276;PMS5003;41136;51.478;-2.610;2023-02-15T04:11:45;92;80;
55276;PMS5003;41136;51.478;-2.610;2023-02-15T04:14:10;103;91;
55276;PMS5003;41136;51.478;-2.610;2023-02-15T04:16:35;99;91;
55276;PMS5003;41136;51.478;-2.610;2023-02-15T04:19:01;96;86;
55276;PMS5003;41136;51.478;-2.610;2023-02-15T04:21:26;114;100;
55276;PMS5003;41136;51.478;-2.610;2023-02-15T04:23:52;109;91;
55276;PMS5003;41136;51.478;-2.610;2023-02-15T04:26:17;101;87;
55276;PMS5003;41136;51.478;-2.610;2023-02-15T04:28:43;107;92;
55276;PMS5003;41136;51.478;-2.610;2023-02-15T04:31:08;105;93;
55276;PMS5003;41136;51.478;-2.610;2023-02-15T04:33:33;104;87;
55276;PMS5003;41136;51.478;-2.610;2023-02-15T04:35:59;109;90;
55276;PMS5003;41136;51.478;-2.610;2023-02-15T04:38:25;98;86;
55276;PMS5003;41136;51.478;-2.610;2023-02-15T04:40:50;95;90;
55276;PMS5003;41136;51.478;-2.610;2023-02-15T04:43:16;97;85;
55276;PMS5003;41136;51.478;-2.610;2023-02-15T04:45:41;96;83;
55276;PMS5003;41136;51.478;-2.610;2023-02-15T04:48:07;101;89;
55276;PMS5003;41136;51.478;-2.610;2023-02-15T04:50:32;102;86;
55276;PMS5003;41136;51.478;-2.610;2023-02-15T04:52:58;96;85;
55276;PMS5003;41136;51.478;-2.610;2023-02-15T04:55:23;108;93;
55276;PMS5003;41136;51.478;-2.610;2023-02-15T05:00:54;101;92;
55276;PMS5003;41136;51.478;-2.610;2023-02-15T05:03:19;105;94;
55276;PMS5003;41136;51.478;-2.610;2023-02-15T05:05:44;119;97;
55276;PMS5003;41136;51.478;-2.610;2023-02-15T05:08:09;106;97;
55276;PMS5003;41136;51.478;-2.610;2023-02-15T05:10:35;104;90;
55276;PMS5003;41136;51.478;-2.610;2023-02-15T05:13:00;111;98;
55276;PMS5003;41136;51.478;-2.610;2023-02-15T05:15:26;107;94;
55276;PMS5003;41136;51.478;-2.610;2023-02-15T05:17:51;110;88;
55276;PMS5003;41136;51.478;-2.610;2023-02-15T05:20:17;119;98;
55276;PMS5003;41136;51.478;-2.610;2023-02-15T05:22:42;97;82;
55276;PMS5003;41136;51.478;-2.610;2023-02-15T05:25:08;102;88;
55276;PMS5003;41136;51.478;-2.610;2023-02-15T05:27:34;109;94;
55276;PMS5003;41136;51.478;-2.610;2023-02-15T05:29:59;101;88;
55276;PMS5003;41136;51.478;-2.610;2023-02-15T05:32:24;97;86;
55276;PMS5003;41136;51.478;-2.610;2023-02-15T05:34:50;101;86;
55276;PMS5003;41136;51.478;-2.610;2023-02-15T05:37:15;99;89;
55276;PMS5003;41136;51.478;-2.610;2023-02-15T05:39:41;111;95;
55276;PMS5003;41136;51.478;-2.610;2023-02-15T05:42:06;111;96;
55276;PMS5003;41136;51.478;-2.610;2023-02-15T05:44:31;102;93;
55276;PMS5003;41136;51.478;-2.610;2023-02-15T05:46:56;119;96;
55276;PMS5003;41136;51.478;-2.610;2023-02-15T05:49:22;111;94;
55276;PMS5003;41136;51.478;-2.610;2023-02-15T05:51:48;112;96;
55276;PMS5003;41136;51.478;-2.610;2023-02-15T05:54:13;106;92;
55276;PMS5003;41136;51.478;-2.610;2023-02-15T05:56:38;103;89;
55276;PMS5003;41136;51.478;-2.610;2023-02-15T05:59:04;122;101;
55276;PMS5003;41136;51.478;-2.610;2023-02-15T06:01:29;103;94;
55276;PMS5003;41136;51.478;-2.610;2023-02-15T06:03:55;101;84;
55276;PMS5003;41136;51.478;-2.610;2023-02-15T06:06:21;97;82;
55276;PMS5003;41136;51.478;-2.610;2023-02-15T06:08:46;102;89;
55276;PMS5003;41136;51.478;-2.610;2023-02-15T06:11:12;112;93;
55276;PMS5003;41136;51.478;-2.610;2023-02-15T06:13:37;95;86;
55276;PMS5003;41136;51.478;-2.610;2023-02-15T06:16:03;96;90;
55276;PMS5003;41136;51.478;-2.610;2023-02-15T06:18:28;100;87;
55276;PMS5003;41136;51.478;-2.610;2023-02-15T06:20:54;93;87;
55276;PMS5003;41136;51.478;-2.610;2023-02-15T06:23:19;107;91;
55276;PMS5003;41136;51.478;-2.610;2023-02-15T06:25:45;109;96;
55276;PMS5003;41136;51.478;-2.610;2023-02-15T06:28:10;107;89;
55276;PMS5003;41136;51.478;-2.610;2023-02-15T06:30:35;104;87;
55276;PMS5003;41136;51.478;-2.610;2023-02-15T06:33:00;103;88;
55276;PMS5003;41136;51.478;-2.610;2023-02-15T06:35:26;102;88;
55276;PMS5003;41136;51.478;-2.610;2023-02-15T06:37:51;116;92;
55276;PMS5003;41136;51.478;-2.610;2023-02-15T06:40:17;99;88;
55276;PMS5003;41136;51.478;-2.610;2023-02-15T06:42:42;103;97;
55276;PMS5003;41136;51.478;-2.610;2023-02-15T06:45:08;103;83;
55276;PMS5003;41136;51.478;-2.610;2023-02-15T06:47:32;100;89;
55276;PMS5003;41136;51.478;-2.610;2023-02-15T06:49:58;99;83;
55276;PMS5003;41136;51.478;-2.610;2023-02-15T06:52:23;96;81;
55276;PMS5003;41136;51.478;-2.610;2023-02-15T06:54:48;86;81;
55276;PMS5003;41136;51.478;-2.610;2023-02-15T06:57:14;93;88;
55276;PMS5003;41136;51.478;-2.610;2023-02-15T06:59:39;97;84;
55276;PMS5003;41136;51.478;-2.610;2023-02-15T07:02:05;94;86;
55276;PMS5003;41136;51.478;-2.610;2023-02-15T07:04:31;99;80;
55276;PMS5003;41136;51.478;-2.610;2023-02-15T07:06:56;96;85;
55276;PMS5003;41136;51.478;-2.610;2023-02-15T07:09:22;98;87;
55276;PMS5003;41136;51.478;-2.610;2023-02-15T07:11:48;99;85;
55276;PMS5003;41136;51.478;-2.610;2023-02-15T07:14:13;94;83;
55276;PMS5003;41136;51.478;-2.610;2023-02-15T07:16:38;110;95;
55276;PMS5003;41136;51.478;-2.610;2023-02-15T07:19:03;98;82;
55276;PMS5003;41136;51.478;-2.610;2023-02-15T07:21:29;99;89;
55276;PMS5003;41136;51.478;-2.610;2023-02-15T07:23:55;92;86;
55276;PMS5003;41136;51.478;-2.610;2023-02-15T07:26:19;106;94;
55276;PMS5003;41136;51.478;-2.610;2023-02-15T07:28:44;97;87;
55276;PMS5003;41136;51.478;-2.610;2023-02-15T07:31:10;99;77;
55276;PMS5003;41136;51.478;-2.610;2023-02-15T07:33:36;95;84;
55276;PMS5003;41136;51.478;-2.610;2023-02-15T07:36:02;107;90;
55276;PMS5003;41136;51.478;-2.610;2023-02-15T07:38:27;104;86;
55276;PMS5003;41136;51.478;-2.610;2023-02-15T07:40:51;87;75;
55276;PMS5003;41136;51.478;-2.610;2023-02-15T07:43:17;101;90;
55276;PMS5003;41136;51.478;-2.610;2023-02-15T07:45:43;93;85;
55276;PMS5003;41136;51.478;-2.610;2023-02-15T07:48:08;92;81;
55276;PMS5003;41136;51.478;-2.610;2023-02-15T07:50:34;99;82;
55276;PMS5003;41136;51.478;-2.610;2023-02-15T07:53:00;85;77;
55276;PMS5003;41136;51.478;-2.610;2023-02-15T07:55:25;87;77;
55276;PMS5003;41136;51.478;-2.610;2023-02-15T07:57:50;95;81;
55276;PMS5003;41136;51.478;-2.610;2023-02-15T08:00:16;90;77;
55276;PMS5003;41136;51.478;-2.610;2023-02-15T08:02:41;75;70;
55276;PMS5003;41136;51.478;-2.610;2023-02-15T08:05:06;76;65;
55276;PMS5003;41136;51.478;-2.610;2023-02-15T08:07:31;93;77;
55276;PMS5003;41136;51.478;-2.610;2023-02-15T08:09:57;81;75;
55276;PMS5003;41136;51.478;-2.610;2023-02-15T08:12:23;80;74;
55276;PMS5003;41136;51.478;-2.610;2023-02-15T08:14:48;84;79;
55276;PMS5003;41136;51.478;-2.610;2023-02-15T08:17:13;74;68;
55276;PMS5003;41136;51.478;-2.610;2023-02-15T08:19:39;88;80;
55276;PMS5003;41136;51.478;-2.610;2023-02-15T08:22:05;86;73;
55276;PMS5003;41136;51.478;-2.610;2023-02-15T08:24:30;83;71;
55276;PMS5003;41136;51.478;-2.610;2023-02-15T08:26:55;89;75;
55276;PMS5003;41136;51.478;-2.610;2023-02-15T08:29:21;78;67;
55276;PMS5003;41136;51.478;-2.610;2023-02-15T08:31:45;72;66;
55276;PMS5003;41136;51.478;-2.610;2023-02-15T08:34:13;80;68;
55276;PMS5003;41136;51.478;-2.610;2023-02-15T08:36:37;81;65;
55276;PMS5003;41136;51.478;-2.610;2023-02-15T08:39:02;82;70;
55276;PMS5003;41136;51.478;-2.610;2023-02-15T08:41:29;82;66;
55276;PMS5003;41136;51.478;-2.610;2023-02-15T08:43:54;75;67;
55276;PMS5003;41136;51.478;-2.610;2023-02-15T08:46:19;85;73;
55276;PMS5003;41136;51.478;-2.610;2023-02-15T08:48:44;81;72;
55276;PMS5003;41136;51.478;-2.610;2023-02-15T08:51:10;86;69;
55276;PMS5003;41136;51.478;-2.610;2023-02-15T08:53:35;84;72;
55276;PMS5003;41136;51.478;-2.610;2023-02-15T08:56:01;82;72;
55276;PMS5003;41136;51.478;-2.610;2023-02-15T08:58:28;70;64;
55276;PMS5003;41136;51.478;-2.610;2023-02-15T09:00:52;73;66;
55276;PMS5003;41136;51.478;-2.610;2023-02-15T09:03:18;72;64;
55276;PMS5003;41136;51.478;-2.610;2023-02-15T09:05:43;72;62;
55276;PMS5003;41136;51.478;-2.610;2023-02-15T09:08:09;74;66;
55276;PMS5003;41136;51.478;-2.610;2023-02-15T09:10:35;76;70;
55276;PMS5003;41136;51.478;-2.610;2023-02-15T09:13:00;77;68;
55276;PMS5003;41136;51.478;-2.610;2023-02-15T09:15:25;77;64;
55276;PMS5003;41136;51.478;-2.610;2023-02-15T09:17:51;68;58;
55276;PMS5003;41136;51.478;-2.610;2023-02-15T09:20:16;67;56;
55276;PMS5003;41136;51.478;-2.610;2023-02-15T09:22:41;59;54;
55276;PMS5003;41136;51.478;-2.610;2023-02-15T09:25:07;64;52;
55276;PMS5003;41136;51.478;-2.610;2023-02-15T09:27:32;58;48;
55276;PMS5003;41136;51.478;-2.610;2023-02-15T09:29:58;53;51;
55276;PMS5003;41136;51.478;-2.610;2023-02-15T09:32:23;57;50;
55276;PMS5003;41136;51.478;-2.610;2023-02-15T09:34:48;63;53;
55276;PMS5003;41136;51.478;-2.610;2023-02-15T09:37:14;52;50;
55276;PMS5003;41136;51.478;-2.610;2023-02-15T09:39:41;68;61;
55276;PMS5003;41136;51.478;-2.610;2023-02-15T09:42:11;69;60;
55276;PMS5003;41136;51.478;-2.610;2023-02-15T09:44:33;71;60;
55276;PMS5003;41136;51.478;-2.610;2023-02-15T09:47:02;56;49;
55276;PMS5003;41136;51.478;-2.610;2023-02-15T09:49:23;58;52;
55276;PMS5003;41136;51.478;-2.610;2023-02-15T09:51:52;54;48;
55276;PMS5003;41136;51.478;-2.610;2023-02-15T09:54:16;52;46;
55276;PMS5003;41136;51.478;-2.610;2023-02-15T09:56:38;54;47;
55276;PMS5003;41136;51.478;-2.610;2023-02-15T09:59:05;54;47;
55276;PMS5003;41136;51.478;-2.610;2023-02-15T10:01:30;43;39;
55276;PMS5003;41136;51.478;-2.610;2023-02-15T10:03:56;42;41;
55276;PMS5003;41136;51.478;-2.610;2023-02-15T10:06:23;40;40;
55276;PMS5003;41136;51.478;-2.610;2023-02-15T10:11:11;38;37;
55276;PMS5003;41136;51.478;-2.610;2023-02-15T10:13:36;41;34;
55276;PMS5003;41136;51.478;-2.610;2023-02-15T10:16:04;38;33;
55276;PMS5003;41136;51.478;-2.610;2023-02-15T10:18:30;35;34;
55276;PMS5003;41136;51.478;-2.610;2023-02-15T10:20:53;37;33;
55276;PMS5003;41136;51.478;-2.610;2023-02-15T10:23:21;39;35;
55276;PMS5003;41136;51.478;-2.610;2023-02-15T10:25:43;42;34;
55276;PMS5003;41136;51.478;-2.610;2023-02-15T10:28:09;35;30;
55276;PMS5003;41136;51.478;-2.610;2023-02-15T10:30:35;36;35;
55276;PMS5003;41136;51.478;-2.610;2023-02-15T10:32:58;39;33;
55276;PMS5003;41136;51.478;-2.610;2023-02-15T10:35:23;32;32;
55276;PMS5003;41136;51.478;-2.610;2023-02-15T10:37:50;33;28;
55276;PMS5003;41136;51.478;-2.610;2023-02-15T10:40:15;30;29;
55276;PMS5003;41136;51.478;-2.610;2023-02-15T10:42:40;34;30;
55276;PMS5003;41136;51.478;-2.610;2023-02-15T10:45:06;32;30;
55276;PMS5003;41136;51.478;-2.610;2023-02-15T10:47:32;30;26;
55276;PMS5003;41136;51.478;-2.610;2023-02-15T10:50:01;32;28;
55276;PMS5003;41136;51.478;-2.610;2023-02-15T10:52:22;31;27;
55276;PMS5003;41136;51.478;-2.610;2023-02-15T10:54:45;28;27;
55276;PMS5003;41136;51.478;-2.610;2023-02-15T10:57:12;29;25;
55276;PMS5003;41136;51.478;-2.610;2023-02-15T10:59:39;32;29;
55276;PMS5003;41136;51.478;-2.610;2023-02-15T11:02:04;37;34;
55276;PMS5003;41136;51.478;-2.610;2023-02-15T11:04:36;34;26;
55276;PMS5003;41136;51.478;-2.610;2023-02-15T11:06:53;36;35;
55276;PMS5003;41136;51.478;-2.610;2023-02-15T11:09:18;33;29;
55276;PMS5003;41136;51.478;-2.610;2023-02-15T11:11:44;30;30;
55276;PMS5003;41136;51.478;-2.610;2023-02-15T11:14:09;28;24;
55276;PMS5003;41136;51.478;-2.610;2023-02-15T11:16:35;29;27;
55276;PMS5003;41136;51.478;-2.610;2023-02-15T11:19:00;35;31;
55276;PMS5003;41136;51.478;-2.610;2023-02-15T11:21:26;28;26;
55276;PMS5003;41136;51.478;-2.610;2023-02-15T11:23:51;30;28;
55276;PMS5003;41136;51.478;-2.610;2023-02-15T11:26:17;31;29;
55276;PMS5003;41136;51.478;-2.610;2023-02-15T11:28:43;36;29;
55276;PMS5003;41136;51.478;-2.610;2023-02-15T11:31:11;37;32;
55276;PMS5003;41136;51.478;-2.610;2023-02-15T11:33:33;33;29;
55276;PMS5003;41136;51.478;-2.610;2023-02-15T11:35:58;31;30;
55276;PMS5003;41136;51.478;-2.610;2023-02-15T11:38:23;30;28;
55276;PMS5003;41136;51.478;-2.610;2023-02-15T11:40:48;33;29;
55276;PMS5003;41136;51.478;-2.610;2023-02-15T11:43:15;33;30;
55276;PMS5003;41136;51.478;-2.610;2023-02-15T11:45:39;25;24;
55276;PMS5003;41136;51.478;-2.610;2023-02-15T11:48:08;30;24;
55276;PMS5003;41136;51.478;-2.610;2023-02-15T11:50:31;34;33;
55276;PMS5003;41136;51.478;-2.610;2023-02-15T11:52:58;39;31;
55276;PMS5003;41136;51.478;-2.610;2023-02-15T11:55:22;33;33;
55276;PMS5003;41136;51.478;-2.610;2023-02-15T11:57:49;27;26;
55276;PMS5003;41136;51.478;-2.610;2023-02-15T12:00:14;32;28;
55276;PMS5003;41136;51.478;-2.610;2023-02-15T12:02:38;28;28;
55276;PMS5003;41136;51.478;-2.610;2023-02-15T12:05:05;32;29;
55276;PMS5003;41136;51.478;-2.610;2023-02-15T12:07:30;27;25;
55276;PMS5003;41136;51.478;-2.610;2023-02-15T12:09:56;40;36;
55276;PMS5003;41136;51.478;-2.610;2023-02-15T12:12:21;33;30;
55276;PMS5003;41136;51.478;-2.610;2023-02-15T12:14:46;40;29;
55276;PMS5003;41136;51.478;-2.610;2023-02-15T12:17:12;35;29;
55276;PMS5003;41136;51.478;-2.610;2023-02-15T12:19:37;33;29;
55276;PMS5003;41136;51.478;-2.610;2023-02-15T12:22:02;30;27;
55276;PMS5003;41136;51.478;-2.610;2023-02-15T12:24:28;28;26;
55276;PMS5003;41136;51.478;-2.610;2023-02-15T12:26:56;31;28;
55276;PMS5003;41136;51.478;-2.610;2023-02-15T12:29:18;26;24;
55276;PMS5003;41136;51.478;-2.610;2023-02-15T12:31:44;29;29;
55276;PMS5003;41136;51.478;-2.610;2023-02-15T12:34:09;27;26;
55276;PMS5003;41136;51.478;-2.610;2023-02-15T12:36:40;34;31;
55276;PMS5003;41136;51.478;-2.610;2023-02-15T12:39:02;35;32;
55276;PMS5003;41136;51.478;-2.610;2023-02-15T12:41:25;33;30;
55276;PMS5003;41136;51.478;-2.610;2023-02-15T12:46:20;26;25;
55276;PMS5003;41136;51.478;-2.610;2023-02-15T12:48:41;28;26;
55276;PMS5003;41136;51.478;-2.610;2023-02-15T12:51:08;30;28;
55276;PMS5003;41136;51.478;-2.610;2023-02-15T12:53:33;36;32;
55276;PMS5003;41136;51.478;-2.610;2023-02-15T12:55:58;26;25;
55276;PMS5003;41136;51.478;-2.610;2023-02-15T12:58:24;23;23;
55276;PMS5003;41136;51.478;-2.610;2023-02-15T13:00:52;26;23;
55276;PMS5003;41136;51.478;-2.610;2023-02-15T13:03:16;29;24;
55276;PMS5003;41136;51.478;-2.610;2023-02-15T13:05:40;27;25;
55276;PMS5003;41136;51.478;-2.610;2023-02-15T13:08:09;26;22;
55276;PMS5003;41136;51.478;-2.610;2023-02-15T13:10:31;23;21;
55276;PMS5003;41136;51.478;-2.610;2023-02-15T13:12:56;22;22;
55276;PMS5003;41136;51.478;-2.610;2023-02-15T13:15:23;27;22;
55276;PMS5003;41136;51.478;-2.610;2023-02-15T13:17:47;27;24;
55276;PMS5003;41136;51.478;-2.610;2023-02-15T13:20:17;27;23;
55276;PMS5003;41136;51.478;-2.610;2023-02-15T13:22:39;25;25;
55276;PMS5003;41136;51.478;-2.610;2023-02-15T13:25:04;25;23;
55276;PMS5003;41136;51.478;-2.610;2023-02-15T13:27:35;25;20;
55276;PMS5003;41136;51.478;-2.610;2023-02-15T13:29:55;19;17;
55276;PMS5003;41136;51.478;-2.610;2023-02-15T13:32:23;25;18;
55276;PMS5003;41136;51.478;-2.610;2023-02-15T13:34:46;26;24;
55276;PMS5003;41136;51.478;-2.610;2023-02-15T13:37:12;22;20;
55276;PMS5003;41136;51.478;-2.610;2023-02-15T13:39:37;25;22;
55276;PMS5003;41136;51.478;-2.610;2023-02-15T13:42:03;22;19;
55276;PMS5003;41136;51.478;-2.610;2023-02-15T13:44:32;29;22;
55276;PMS5003;41136;51.478;-2.610;2023-02-15T13:46:55;25;22;
55276;PMS5003;41136;51.478;-2.610;2023-02-15T13:49:19;21;20;
55276;PMS5003;41136;51.478;-2.610;2023-02-15T13:51:45;28;24;
55276;PMS5003;41136;51.478;-2.610;2023-02-15T13:56:37;25;22;
55276;PMS5003;41136;51.478;-2.610;2023-02-15T13:59:02;23;20;
55276;PMS5003;41136;51.478;-2.610;2023-02-15T14:01:28;26;19;
55276;PMS5003;41136;51.478;-2.610;2023-02-15T14:03:56;25;22;
55276;PMS5003;41136;51.478;-2.610;2023-02-15T14:06:19;22;21;
55276;PMS5003;41136;51.478;-2.610;2023-02-15T14:08:45;27;23;
55276;PMS5003;41136;51.478;-2.610;2023-02-15T14:11:07;24;22;
55276;PMS5003;41136;51.478;-2.610;2023-02-15T14:13:37;24;22;
55276;PMS5003;41136;51.478;-2.610;2023-02-15T14:15:58;29;25;
55276;PMS5003;41136;51.478;-2.610;2023-02-15T14:18:24;22;21;
55276;PMS5003;41136;51.478;-2.610;2023-02-15T14:20:51;24;21;
55276;PMS5003;41136;51.478;-2.610;2023-02-15T14:23:16;25;23;
55276;PMS5003;41136;51.478;-2.610;2023-02-15T14:25:40;25;23;
55276;PMS5003;41136;51.478;-2.610;2023-02-15T14:28:07;22;21;
55276;PMS5003;41136;51.478;-2.610;2023-02-15T14:30:30;24;23;
55276;PMS5003;41136;51.478;-2.610;2023-02-15T14:32:55;24;21;
55276;PMS5003;41136;51.478;-2.610;2023-02-15T14:35:22;23;23;
55276;PMS5003;41136;51.478;-2.610;2023-02-15T14:37:48;26;25;
55276;PMS5003;41136;51.478;-2.610;2023-02-15T14:40:15;25;22;
55276;PMS5003;41136;51.478;-2.610;2023-02-15T14:42:38;27;27;
55276;PMS5003;41136;51.478;-2.610;2023-02-15T14:45:04;26;25;
55276;PMS5003;41136;51.478;-2.610;2023-02-15T14:47:29;13;12;
55276;PMS5003;41136;51.478;-2.610;2023-02-15T14:49:53;6;6;
55276;PMS5003;41136;51.478;-2.610;2023-02-15T14:52:19;7;6;
55276;PMS5003;41136;51.478;-2.610;2023-02-15T14:59:36;6;4;
55276;PMS5003;41136;51.478;-2.610;2023-02-15T15:02:07;5;5;
55276;PMS5003;41136;51.478;-2.610;2023-02-15T15:04:27;5;5;
55276;PMS5003;41136;51.478;-2.610;2023-02-15T15:06:57;4;4;
55276;PMS5003;41136;51.478;-2.610;2023-02-15T15:09:19;5;4;
55276;PMS5003;41136;51.478;-2.610;2023-02-15T15:11:44;5;4;
55276;PMS5003;41136;51.478;-2.610;2023-02-15T15:14:07;5;5;
55276;PMS5003;41136;51.478;-2.610;2023-02-15T15:18:58;4;3;
55276;PMS5003;41136;51.478;-2.610;2023-02-15T15:23:49;5;3;
55276;PMS5003;41136;51.478;-2.610;2023-02-15T15:31:06;8;8;
55276;PMS5003;41136;51.478;-2.610;2023-02-15T15:36:01;10;10;
55276;PMS5003;41136;51.478;-2.610;2023-02-15T15:38:27;14;14;
55276;PMS5003;41136;51.478;-2.610;2023-02-15T15:45:41;11;9;
55276;PMS5003;41136;51.478;-2.610;2023-02-15T15:48:07;56;52;
55276;PMS5003;41136;51.478;-2.610;2023-02-15T15:50:28;17;16;
55276;PMS5003;41136;51.478;-2.610;2023-02-15T15:52:54;9;9;
55276;PMS5003;41136;51.478;-2.610;2023-02-15T15:55:19;9;9;
55276;PMS5003;41136;51.478;-2.610;2023-02-15T15:57:44;6;5;
55276;PMS5003;41136;51.478;-2.610;2023-02-15T16:02:34;11;11;
55276;PMS5003;41136;51.478;-2.610;2023-02-15T16:07:25;7;7;
55276;PMS5003;41136;51.478;-2.610;2023-02-15T16:09:57;9;9;
55276;PMS5003;41136;51.478;-2.610;2023-02-15T16:12:16;9;9;
55276;PMS5003;41136;51.478;-2.610;2023-02-15T16:14:41;13;10;
55276;PMS5003;41136;51.478;-2.610;2023-02-15T16:17:07;37;33;
55276;PMS5003;41136;51.478;-2.610;2023-02-15T16:19:32;63;57;
55276;PMS5003;41136;51.478;-2.610;2023-02-15T16:21:58;10;9;
55276;PMS5003;41136;51.478;-2.610;2023-02-15T16:26:53;14;12;
55276;PMS5003;41136;51.478;-2.610;2023-02-15T16:29:15;22;22;
55276;PMS5003;41136;51.478;-2.610;2023-02-15T16:31:40;24;23;
55276;PMS5003;41136;51.478;-2.610;2023-02-15T16:34:07;16;15;
55276;PMS5003;41136;51.478;-2.610;2023-02-15T16:36:31;15;13;
55276;PMS5003;41136;51.478;-2.610;2023-02-15T16:41:22;9;9;